Time;durP1;ratioP1;P1;durP2;ratioP2;P2;SDS_P1;SDS_P2;PMS_P1;PMS_P2;Temp;Humidity;BMP_temperature;BMP_pressure;BME280_temperature;BME280_humidity;BME280_pressure;Samples;Min_cycle;Max_cycle;Signal;HPM_P1;HPM_P2
2022/05/17 00:00:27;;;;;;;17.35;4.88;;;15.80;99.90;;;;;;4232295;28;20047;-84
2022/05/17 00:02:28;;;;;;;15.30;4.53;;;15.80;99.90;;;;;;4232489;28;20086;-85
2022/05/17 00:04:29;;;;;;;18.23;5.32;;;15.80;99.90;;;;;;4214272;28;20403;-84
2022/05/17 00:06:29;;;;;;;18.08;6.15;;;15.70;99.90;;;;;;4232065;28;20044;-84
2022/05/17 00:08:30;;;;;;;15.48;5.40;;;15.70;99.90;;;;;;4232036;28;20039;-84
2022/05/17 00:10:31;;;;;;;16.48;5.43;;;15.70;99.90;;;;;;4213316;28;20040;-83
2022/05/17 00:12:32;;;;;;;14.38;4.68;;;15.70;99.90;;;;;;4232081;28;20578;-84
2022/05/17 00:14:34;;;;;;;20.33;5.63;;;15.60;99.90;;;;;;4231973;28;20043;-84
2022/05/17 00:16:35;;;;;;;15.63;5.38;;;16.10;99.90;;;;;;4232141;28;20126;-84
2022/05/17 00:18:36;;;;;;;20.80;5.57;;;15.60;99.90;;;;;;4232168;28;20059;-84
2022/05/17 00:20:38;;;;;;;17.83;5.18;;;15.60;99.90;;;;;;4214139;28;20141;-85
2022/05/17 00:22:39;;;;;;;16.45;5.72;;;15.70;99.90;;;;;;4231575;28;20044;-84
2022/05/17 00:24:40;;;;;;;16.65;5.30;;;15.50;99.90;;;;;;4231986;28;20507;-84
2022/05/17 00:26:42;;;;;;;14.57;5.90;;;15.50;99.90;;;;;;4232221;28;20040;-84
2022/05/17 00:28:43;;;;;;;19.90;5.93;;;15.50;99.90;;;;;;4213915;28;20131;-84
2022/05/17 00:30:45;;;;;;;14.40;5.32;;;15.50;99.90;;;;;;4232217;28;20496;-84
2022/05/17 00:32:49;;;;;;;13.25;4.95;;;15.40;99.90;;;;;;4232301;28;20058;-84
2022/05/17 00:34:49;;;;;;;13.73;4.72;;;15.40;99.90;;;;;;4232282;28;20079;-84
2022/05/17 00:36:50;;;;;;;15.40;4.85;;;15.40;99.90;;;;;;4237056;27;20047;-84
2022/05/17 00:38:51;;;;;;;18.75;4.97;;;15.40;99.90;;;;;;4248721;27;20043;-84
2022/05/17 00:40:52;;;;;;;22.17;5.28;;;15.30;99.90;;;;;;4230006;28;20059;-84
2022/05/17 00:42:53;;;;;;;15.57;4.70;;;15.30;99.90;;;;;;4248853;27;20398;-84
2022/05/17 00:44:53;;;;;;;15.43;4.40;;;15.30;99.90;;;;;;4248636;27;20471;-84
2022/05/17 00:47:16;;;;;;;18.63;5.40;;;15.30;99.90;;;;;;4248808;27;20084;-84
2022/05/17 00:49:30;;;;;;;11.43;4.70;;;15.30;99.90;;;;;;4249130;27;20042;-84
2022/05/17 00:51:31;;;;;;;18.30;4.47;;;15.20;99.90;;;;;;4249004;27;20070;-84
2022/05/17 00:53:34;;;;;;;12.43;4.95;;;15.20;99.90;;;;;;4230836;28;20090;-84
2022/05/17 00:55:57;;;;;;;19.52;5.47;;;15.20;99.90;;;;;;4230402;28;20071;-83
2022/05/17 00:58:01;;;;;;;19.35;5.10;;;15.20;99.90;;;;;;4230489;28;20047;-84
2022/05/17 01:00:07;;;;;;;11.43;4.15;;;15.20;99.90;;;;;;4247641;27;20107;-84
2022/05/17 01:02:09;;;;;;;11.43;4.18;;;15.20;99.90;;;;;;4248619;27;20544;-84
2022/05/17 01:04:21;;;;;;;17.63;4.80;;;15.20;99.90;;;;;;4248846;27;20070;-84
2022/05/17 01:06:27;;;;;;;15.90;4.80;;;15.20;99.90;;;;;;4231044;28;20052;-84
2022/05/17 01:08:28;;;;;;;19.15;4.15;;;15.20;99.90;;;;;;4248799;27;20043;-84
2022/05/17 01:10:30;;;;;;;14.32;4.18;;;15.10;99.90;;;;;;4248516;27;20043;-84
2022/05/17 01:12:33;;;;;;;15.45;4.75;;;15.10;99.90;;;;;;4248834;27;20126;-84
2022/05/17 01:14:58;;;;;;;20.38;5.20;;;15.10;99.90;;;;;;4248884;27;20058;-84
2022/05/17 01:16:59;;;;;;;12.75;4.93;;;15.10;99.90;;;;;;4248673;27;20505;-84
2022/05/17 01:19:00;;;;;;;18.65;4.50;;;15.10;99.90;;;;;;4248649;27;20129;-84
2022/05/17 01:21:02;;;;;;;15.25;4.50;;;15.10;99.90;;;;;;4247701;27;20060;-84
2022/05/17 01:23:03;;;;;;;15.95;6.38;;;15.10;99.90;;;;;;4248265;27;20050;-84
2022/05/17 01:25:04;;;;;;;16.15;5.03;;;15.10;99.90;;;;;;4248401;27;20487;-84
2022/05/17 01:27:33;;;;;;;17.90;4.80;;;15.00;99.90;;;;;;4248611;27;20043;-84
2022/05/17 01:29:43;;;;;;;16.63;4.90;;;15.10;99.90;;;;;;4230002;28;20082;-84
2022/05/17 01:31:43;;;;;;;;;;;15.00;99.90;;;;;;4248705;27;20035;-84
2022/05/17 01:33:44;;;;;;;17.92;4.43;;;15.10;99.90;;;;;;4248247;27;20375;-85
2022/05/17 01:35:45;;;;;;;18.33;5.00;;;15.00;99.90;;;;;;4230072;28;20114;-84
2022/05/17 01:37:50;;;;;;;11.93;3.88;;;15.00;99.90;;;;;;4248216;27;20054;-84
2022/05/17 01:39:51;;;;;;;18.20;4.70;;;15.00;99.90;;;;;;4229977;28;20535;-84
2022/05/17 01:41:52;;;;;;;18.75;4.97;;;15.00;99.90;;;;;;4247738;27;20035;-84
2022/05/17 01:43:54;;;;;;;16.67;4.70;;;14.90;99.90;;;;;;4248030;27;20114;-84
2022/05/17 01:45:55;;;;;;;17.90;5.22;;;14.90;99.90;;;;;;4248138;27;20039;-85
2022/05/17 01:47:56;;;;;;;19.63;5.00;;;14.90;99.90;;;;;;4212846;28;20047;-84
2022/05/17 01:49:56;;;;;;;13.55;5.50;;;14.90;99.90;;;;;;4229855;28;20372;-84
2022/05/17 01:51:57;;;;;;;20.60;5.07;;;14.80;99.90;;;;;;4229760;28;20100;-84
2022/05/17 01:53:58;;;;;;;17.23;4.82;;;14.90;99.90;;;;;;4248100;27;20054;-84
2022/05/17 01:56:00;;;;;;;17.35;5.68;;;14.80;99.90;;;;;;4247640;27;20117;-85
2022/05/17 01:58:01;;;;;;;17.70;5.57;;;14.80;99.90;;;;;;4248254;27;20051;-84
2022/05/17 02:00:02;;;;;;;16.58;5.03;;;14.80;99.90;;;;;;4229756;28;20109;-84
2022/05/17 02:02:04;;;;;;;18.15;5.50;;;14.70;99.90;;;;;;4247965;27;20133;-84
2022/05/17 02:04:04;;;;;;;10.63;5.18;;;14.80;99.90;;;;;;4230048;28;20079;-84
2022/05/17 02:06:05;;;;;;;15.25;7.00;;;14.70;99.90;;;;;;4247776;27;20043;-83
2022/05/17 02:08:06;;;;;;;17.67;5.85;;;14.60;99.90;;;;;;4248277;27;20094;-83
2022/05/17 02:10:08;;;;;;;15.60;6.78;;;14.70;99.90;;;;;;4251183;27;20403;-84
2022/05/17 02:12:10;;;;;;;18.58;5.57;;;14.70;99.90;;;;;;4230552;28;20094;-84
2022/05/17 02:14:10;;;;;;;13.15;5.35;;;14.60;99.90;;;;;;4248857;27;20058;-84
2022/05/17 02:16:11;;;;;;;20.05;5.57;;;14.60;99.90;;;;;;4252106;27;20039;-84
2022/05/17 02:18:12;;;;;;;12.35;5.10;;;14.60;99.90;;;;;;4252469;27;20043;-83
2022/05/17 02:20:13;;;;;;;18.25;5.78;;;14.60;99.90;;;;;;4254119;27;20491;-82
2022/05/17 02:22:14;;;;;;;19.17;5.43;;;14.60;99.90;;;;;;4255083;27;20498;-84
2022/05/17 02:24:15;;;;;;;16.17;5.72;;;14.60;99.90;;;;;;4237441;28;20051;-85
2022/05/17 02:26:16;;;;;;;23.10;6.30;;;14.60;99.90;;;;;;4254702;28;20108;-84
2022/05/17 02:28:20;;;;;;;16.75;5.30;;;14.50;99.90;;;;;;4254495;28;20049;-84
2022/05/17 02:30:21;;;;;;;22.58;6.10;;;14.50;99.90;;;;;;4230963;28;20079;-84
2022/05/17 02:32:21;;;;;;;20.45;4.93;;;14.50;99.90;;;;;;4247483;28;20127;-84
2022/05/17 02:34:22;;;;;;;19.13;4.95;;;14.50;99.90;;;;;;4247987;28;20031;-84
2022/05/17 02:36:22;;;;;;;19.13;5.68;;;14.40;99.90;;;;;;4246531;28;20085;-84
2022/05/17 02:38:23;;;;;;;16.38;5.97;;;14.40;99.90;;;;;;4230932;28;20038;-84
2022/05/17 02:40:24;;;;;;;15.88;5.65;;;14.40;99.90;;;;;;4230459;28;20075;-84
2022/05/17 02:42:24;;;;;;;15.55;4.90;;;14.40;99.90;;;;;;4230735;28;20039;-84
2022/05/17 02:44:25;;;;;;;16.85;4.85;;;14.40;99.90;;;;;;4230729;28;20040;-84
2022/05/17 02:46:29;;;;;;;21.92;6.38;;;14.40;99.90;;;;;;4230412;28;20088;-84
2022/05/17 02:48:30;;;;;;;20.02;6.10;;;14.40;99.90;;;;;;4230462;28;20083;-84
2022/05/17 02:50:32;;;;;;;16.00;5.03;;;14.40;99.90;;;;;;4230712;28;20471;-84
2022/05/17 02:52:32;;;;;;;15.30;4.88;;;14.30;99.90;;;;;;4230729;28;20429;-84
2022/05/17 02:54:33;;;;;;;15.40;4.95;;;14.40;99.90;;;;;;4230572;28;20051;-84
2022/05/17 02:56:34;;;;;;;14.85;4.60;;;14.30;99.90;;;;;;4230395;28;20047;-84
2022/05/17 02:58:35;;;;;;;14.32;5.07;;;14.30;99.90;;;;;;4230241;28;20472;-82
2022/05/17 03:00:36;;;;;;;13.02;4.68;;;14.30;99.90;;;;;;4195843;28;20049;-84
2022/05/17 03:02:37;;;;;;;13.35;4.57;;;14.30;99.90;;;;;;4230458;28;20076;-84
2022/05/17 03:04:38;;;;;;;16.48;5.22;;;14.30;99.90;;;;;;4230483;28;20145;-84
2022/05/17 03:06:40;;;;;;;17.42;5.30;;;14.30;99.90;;;;;;4230415;28;20036;-84
2022/05/17 03:08:41;;;;;;;14.85;5.68;;;14.30;99.90;;;;;;4230413;28;20054;-84
2022/05/17 03:10:42;;;;;;;14.45;5.18;;;14.30;99.90;;;;;;4230168;28;20032;-84
2022/05/17 03:12:43;;;;;;;14.57;5.15;;;14.20;99.90;;;;;;4230141;28;20047;-84
2022/05/17 03:14:43;;;;;;;13.57;4.90;;;14.20;99.90;;;;;;4230709;28;20043;-84
2022/05/17 03:16:45;;;;;;;24.42;6.22;;;14.20;99.90;;;;;;4232804;28;20162;-84
2022/05/17 03:18:47;;;;;;;21.85;5.22;;;14.10;99.90;;;;;;4211967;28;20099;-84
2022/05/17 03:20:48;;;;;;;21.52;4.88;;;14.20;99.90;;;;;;4230894;28;20059;-84
2022/05/17 03:22:51;;;;;;;18.33;5.07;;;14.20;99.90;;;;;;4251726;27;20055;-83
2022/05/17 03:24:52;;;;;;;12.50;4.55;;;14.20;99.90;;;;;;4251549;27;20054;-84
2022/05/17 03:26:52;;;;;;;17.63;5.25;;;14.20;99.90;;;;;;4248857;27;20043;-83
2022/05/17 03:28:53;;;;;;;14.98;4.53;;;14.20;99.90;;;;;;4249779;27;20039;-83
2022/05/17 03:30:53;;;;;;;15.80;4.97;;;14.20;99.90;;;;;;4231823;28;20077;-83
2022/05/17 03:32:55;;;;;;;15.07;4.82;;;14.10;99.90;;;;;;4250964;27;20125;-83
2022/05/17 03:34:55;;;;;;;16.67;5.13;;;14.10;99.90;;;;;;4254183;27;20035;-85
2022/05/17 03:36:56;;;;;;;18.42;5.68;;;14.10;99.90;;;;;;4221925;28;20152;-83
2022/05/17 03:38:57;;;;;;;23.98;5.30;;;14.10;99.90;;;;;;4231793;28;20105;-83
2022/05/17 03:40:58;;;;;;;11.35;4.53;;;14.10;99.90;;;;;;4250198;27;20051;-83
2022/05/17 03:42:59;;;;;;;12.57;4.57;;;14.10;99.90;;;;;;4249092;27;20042;-85
2022/05/17 03:45:02;;;;;;;12.32;4.50;;;14.10;99.90;;;;;;4228968;28;20051;-87
2022/05/17 03:47:07;;;;;;;16.35;4.85;;;14.00;99.90;;;;;;4232317;28;20097;-83
2022/05/17 03:49:07;;;;;;;15.32;4.60;;;14.10;99.90;;;;;;4245726;27;20483;-83
2022/05/17 03:51:14;;;;;;;16.48;4.68;;;14.10;99.90;;;;;;4248905;27;20034;-83
2022/05/17 03:53:15;;;;;;;11.38;4.50;;;14.10;99.90;;;;;;4249757;27;20047;-83
2022/05/17 03:55:16;;;;;;;13.32;5.50;;;14.00;99.90;;;;;;4249531;27;20529;-83
2022/05/17 03:57:16;;;;;;;14.43;4.28;;;14.00;99.90;;;;;;4249614;27;20039;-83
2022/05/17 03:59:17;;;;;;;14.27;4.18;;;14.10;99.90;;;;;;4232009;28;20078;-83
2022/05/17 04:01:18;;;;;;;17.85;4.72;;;14.10;99.90;;;;;;4249609;27;20035;-83
2022/05/17 04:03:19;;;;;;;12.40;4.20;;;14.10;99.90;;;;;;4249266;27;20043;-83
2022/05/17 04:05:20;;;;;;;12.20;3.95;;;14.10;99.90;;;;;;4249836;27;20046;-83
2022/05/17 04:07:22;;;;;;;9.90;3.42;;;14.00;99.90;;;;;;4249840;27;20490;-83
2022/05/17 04:09:22;;;;;;;16.40;4.25;;;14.10;99.90;;;;;;4249709;27;20514;-83
2022/05/17 04:11:23;;;;;;;18.23;4.82;;;14.10;99.90;;;;;;4249580;27;20122;-83
2022/05/17 04:13:26;;;;;;;15.48;4.53;;;14.10;99.90;;;;;;4249836;27;20459;-83
2022/05/17 04:15:26;;;;;;;13.90;4.32;;;14.10;99.90;;;;;;4249754;27;20100;-83
2022/05/17 04:17:27;;;;;;;11.50;4.05;;;14.20;99.90;;;;;;4249148;27;20047;-83
2022/05/17 04:19:28;;;;;;;13.30;4.85;;;14.10;99.90;;;;;;4249506;27;20066;-83
2022/05/17 04:21:33;;;;;;;21.92;4.90;;;14.20;99.90;;;;;;4249341;27;20175;-83
2022/05/17 04:23:34;;;;;;;11.35;4.30;;;14.20;99.90;;;;;;4249400;27;20070;-83
2022/05/17 04:25:35;;;;;;;10.40;4.30;;;14.30;99.90;;;;;;4249461;27;20495;-83
2022/05/17 04:27:35;;;;;;;25.10;4.30;;;14.30;99.90;;;;;;4249604;27;20122;-84
2022/05/17 04:29:37;;;;;;;11.40;4.00;;;14.30;99.90;;;;;;4249323;27;20043;-83
2022/05/17 04:31:38;;;;;;;10.23;3.65;;;14.40;99.90;;;;;;4230955;28;20048;-83
2022/05/17 04:33:39;;;;;;;12.70;3.85;;;14.40;99.90;;;;;;4249260;27;20065;-83
2022/05/17 04:35:40;;;;;;;14.35;4.35;;;14.40;99.90;;;;;;4249789;27;20047;-84
2022/05/17 04:37:41;;;;;;;10.80;3.88;;;14.50;99.90;;;;;;4213974;28;20052;-83
2022/05/17 04:39:42;;;;;;;16.48;4.90;;;14.50;99.90;;;;;;4248456;27;20066;-84
2022/05/17 04:41:43;;;;;;;16.90;3.80;;;14.60;99.90;;;;;;4247824;27;20047;-84
2022/05/17 04:43:44;;;;;;;9.18;3.80;;;14.60;99.90;;;;;;4249074;27;20437;-85
2022/05/17 04:45:45;;;;;;;13.23;4.05;;;14.70;99.90;;;;;;4248786;27;20091;-84
2022/05/17 04:47:49;;;;;;;11.45;4.47;;;14.70;99.90;;;;;;4249222;27;20047;-83
2022/05/17 04:49:50;;;;;;;11.82;3.38;;;14.80;99.90;;;;;;4230421;28;20061;-84
2022/05/17 04:51:52;;;;;;;11.65;3.47;;;14.90;99.90;;;;;;4230630;28;20039;-83
2022/05/17 04:53:53;;;;;;;12.88;3.00;;;15.00;99.90;;;;;;4230522;28;20131;-84
2022/05/17 04:55:53;;;;;;;16.55;4.20;;;15.00;99.90;;;;;;4248690;27;20047;-83
2022/05/17 04:57:54;;;;;;;10.00;3.10;;;15.10;99.90;;;;;;4248768;27;20089;-84
2022/05/17 04:59:55;;;;;;;15.40;3.85;;;15.10;99.90;;;;;;4230561;28;20126;-83
2022/05/17 05:01:55;;;;;;;12.15;3.10;;;15.20;99.90;;;;;;4248901;27;20047;-83
2022/05/17 05:03:56;;;;;;;15.40;4.47;;;15.20;99.90;;;;;;4248776;27;20121;-84
2022/05/17 05:05:57;;;;;;;14.63;4.22;;;15.30;99.90;;;;;;4230514;28;20043;-84
2022/05/17 05:07:57;;;;;;;11.73;3.45;;;15.30;99.90;;;;;;4248743;27;20050;-83
2022/05/17 05:09:58;;;;;;;15.77;2.92;;;15.40;99.90;;;;;;4248991;27;20096;-84
2022/05/17 05:12:00;;;;;;;9.00;3.33;;;15.40;99.90;;;;;;4249000;27;20042;-84
2022/05/17 05:14:00;;;;;;;17.70;4.45;;;15.40;99.90;;;;;;4248625;27;20082;-84
2022/05/17 05:16:01;;;;;;;15.35;3.55;;;15.50;99.90;;;;;;4249290;27;20054;-84
2022/05/17 05:18:02;;;;;;;15.65;3.88;;;15.50;99.90;;;;;;4230570;28;20047;-84
2022/05/17 05:20:05;;;;;;;17.10;3.50;;;15.50;99.90;;;;;;4249483;27;20043;-84
2022/05/17 05:22:06;;;;;;;11.52;3.25;;;15.50;99.90;;;;;;4249245;27;20559;-84
2022/05/17 05:24:07;;;;;;;15.10;3.90;;;15.60;99.90;;;;;;4249099;27;20047;-82
2022/05/17 05:26:10;;;;;;;10.10;3.20;;;15.60;99.90;;;;;;4249125;27;20039;-83
2022/05/17 05:28:11;;;;;;;11.43;3.40;;;15.60;99.90;;;;;;4248445;27;20476;-83
2022/05/17 05:30:16;;;;;;;15.07;4.28;;;15.60;99.90;;;;;;4248354;27;20073;-83
2022/05/17 05:32:17;;;;;;;9.18;3.25;;;15.60;99.90;;;;;;4248306;27;20050;-83
2022/05/17 05:34:18;;;;;;;15.15;4.03;;;15.60;99.90;;;;;;4247961;27;20043;-82
2022/05/17 05:36:18;;;;;;;13.95;4.07;;;15.50;99.90;;;;;;4248302;27;20085;-83
2022/05/17 05:38:19;;;;;;;15.45;3.85;;;15.50;99.90;;;;;;4229986;28;20475;-83
2022/05/17 05:40:21;;;;;;;11.48;3.35;;;15.50;99.90;;;;;;4229873;28;20129;-82
2022/05/17 05:42:22;;;;;;;11.85;3.25;;;15.50;99.90;;;;;;4247697;27;20406;-83
2022/05/17 05:44:22;;;;;;;14.32;3.30;;;15.40;99.90;;;;;;4248088;27;20039;-83
2022/05/17 05:46:23;;;;;;;17.67;4.35;;;16.00;99.90;;;;;;4247489;27;20099;-84
2022/05/17 05:48:24;;;;;;;9.27;3.47;;;15.50;99.90;;;;;;4248061;27;20032;-84
2022/05/17 05:50:24;;;;;;;12.43;3.08;;;15.50;99.90;;;;;;4229901;28;20049;-83
2022/05/17 05:52:25;;;;;;;19.65;3.28;;;15.60;99.90;;;;;;4229482;28;20054;-83
2022/05/17 05:54:26;;;;;;;9.05;3.70;;;15.60;99.90;;;;;;4247650;27;20131;-84
2022/05/17 05:56:27;;;;;;;13.05;3.40;;;15.70;99.90;;;;;;4229765;28;20051;-84
2022/05/17 05:58:32;;;;;;;19.30;5.25;;;15.80;99.90;;;;;;4229848;28;20055;-84
2022/05/17 06:00:38;;;;;;;12.82;2.75;;;16.30;99.90;;;;;;4251434;27;20066;-84
2022/05/17 06:02:39;;;;;;;17.73;2.97;;;16.00;99.90;;;;;;4234021;28;20051;-84
2022/05/17 06:04:41;;;;;;;15.43;4.72;;;16.00;99.90;;;;;;4231199;28;20483;-84
2022/05/17 06:06:45;;;;;;;14.73;4.50;;;16.00;99.90;;;;;;4235505;27;20043;-83
2022/05/17 06:08:48;;;;;;;16.15;3.92;;;15.80;99.90;;;;;;4249463;27;20552;-84
2022/05/17 06:10:49;;;;;;;12.02;3.38;;;16.10;99.90;;;;;;4249906;27;20393;-83
2022/05/17 06:13:05;;;;;;;13.80;3.53;;;16.10;99.90;;;;;;4253078;27;20092;-82
2022/05/17 06:15:16;;;;;;;8.70;2.97;;;16.20;99.90;;;;;;4218426;28;20048;-84
2022/05/17 06:17:23;;;;;;;16.02;3.63;;;16.20;99.90;;;;;;4232138;28;20044;-85
2022/05/17 06:19:25;;;;;;;12.55;3.47;;;16.30;99.90;;;;;;4249629;27;20047;-84
2022/05/17 06:21:26;;;;;;;17.65;3.88;;;16.30;99.90;;;;;;4248393;27;20464;-84
2022/05/17 06:23:28;;;;;;;13.32;4.60;;;16.30;99.90;;;;;;4251402;27;20039;-85
2022/05/17 06:25:28;;;;;;;10.45;2.95;;;16.40;99.90;;;;;;4212611;28;20103;-84
2022/05/17 06:27:29;;;;;;;14.57;3.83;;;16.50;99.90;;;;;;4247238;28;20051;-84
2022/05/17 06:29:30;;;;;;;10.48;3.03;;;16.50;99.90;;;;;;4248005;28;20058;-84
2022/05/17 06:31:34;;;;;;;15.30;3.70;;;16.60;99.90;;;;;;4248065;28;20035;-83
2022/05/17 06:33:35;;;;;;;15.93;3.50;;;16.80;99.90;;;;;;4247369;28;20039;-83
2022/05/17 06:35:41;;;;;;;10.02;3.33;;;16.90;99.90;;;;;;4247860;28;20127;-84
2022/05/17 06:37:42;;;;;;;18.30;4.50;;;17.00;99.90;;;;;;4228489;28;20048;-84
2022/05/17 06:39:42;;;;;;;18.95;3.78;;;17.10;99.90;;;;;;4247882;28;20395;-84
2022/05/17 06:41:44;;;;;;;14.25;2.90;;;17.10;99.90;;;;;;4247137;27;20095;-83
2022/05/17 06:43:45;;;;;;;12.20;3.47;;;17.30;99.90;;;;;;4246945;28;20039;-83
2022/05/17 06:45:46;;;;;;;12.32;3.28;;;;;;;;;;4247135;28;20384;-83
2022/05/17 06:47:50;;;;;;;11.25;3.50;;;17.30;99.90;;;;;;4246930;28;20047;-83
2022/05/17 06:49:50;;;;;;;16.13;3.38;;;17.60;99.90;;;;;;4228513;28;20055;-84
2022/05/17 06:51:51;;;;;;;10.88;2.67;;;17.60;99.90;;;;;;4228087;28;20043;-82
2022/05/17 06:53:52;;;;;;;15.60;3.50;;;17.60;99.90;;;;;;4246962;28;20437;-83
2022/05/17 06:55:53;;;;;;;11.68;2.60;;;;;;;;;;4246632;28;20043;-83
2022/05/17 06:57:54;;;;;;;12.25;3.08;;;;;;;;;;4248829;27;20103;-83
2022/05/17 06:59:55;;;;;;;11.68;3.45;;;;;;;;;;4250143;27;20081;-83
2022/05/17 07:01:57;;;;;;;13.43;3.38;;;17.60;99.90;;;;;;4250043;27;20475;-83
2022/05/17 07:03:57;;;;;;;9.73;2.90;;;17.80;99.90;;;;;;4231720;28;20113;-83
2022/05/17 07:05:58;;;;;;;13.77;3.33;;;17.90;99.90;;;;;;4250306;27;20105;-83
2022/05/17 07:08:01;;;;;;;10.13;3.60;;;17.90;99.90;;;;;;4250031;27;20083;-83
2022/05/17 07:14:41;;;;;;;12.20;3.05;;;17.90;99.90;;;;;;4249153;27;20047;-83
2022/05/17 07:16:41;;;;;;;10.95;2.58;;;18.00;99.90;;;;;;4249835;27;20047;-83
2022/05/17 07:18:42;;;;;;;9.73;3.17;;;18.10;99.90;;;;;;4231426;28;20058;-83
2022/05/17 07:20:44;;;;;;;14.70;3.30;;;18.20;99.90;;;;;;4249916;27;20082;-84
2022/05/17 07:22:45;;;;;;;11.00;3.10;;;18.30;99.90;;;;;;4249878;27;20797;-83
2022/05/17 07:24:46;;;;;;;6.15;2.97;;;18.40;99.90;;;;;;4250985;27;20535;-83
2022/05/17 07:26:48;;;;;;;10.38;2.83;;;18.40;99.90;;;;;;4250410;27;20051;-84
2022/05/17 07:28:49;;;;;;;12.02;3.17;;;18.40;99.90;;;;;;4232295;28;20131;-82
2022/05/17 07:30:51;;;;;;;13.40;3.15;;;18.60;99.90;;;;;;4250461;27;20035;-84
2022/05/17 07:32:52;;;;;;;14.57;3.83;;;18.70;99.90;;;;;;4215065;28;20052;-84
2022/05/17 07:34:53;;;;;;;12.13;2.60;;;18.80;99.90;;;;;;4249509;27;20047;-84
2022/05/17 07:36:54;;;;;;;11.90;3.60;;;18.90;99.90;;;;;;4250113;27;20399;-83
2022/05/17 07:38:57;;;;;;;8.77;2.50;;;19.10;99.90;;;;;;4250097;27;20039;-83
2022/05/17 07:40:58;;;;;;;8.60;2.72;;;19.30;99.90;;;;;;4249987;27;20055;-83
2022/05/17 07:43:00;;;;;;;12.23;3.70;;;19.40;99.90;;;;;;4215135;28;20142;-83
2022/05/17 07:45:00;;;;;;;11.13;2.65;;;19.50;99.90;;;;;;4249450;27;20126;-83
2022/05/17 07:47:02;;;;;;;11.90;3.03;;;19.70;99.90;;;;;;4249987;27;20046;-83
2022/05/17 07:49:03;;;;;;;10.95;3.08;;;19.80;99.90;;;;;;4249947;27;20043;-83
2022/05/17 07:51:06;;;;;;;9.00;2.28;;;20.00;99.90;;;;;;4214856;28;20040;-83
2022/05/17 07:53:15;;;;;;;13.07;3.60;;;20.10;99.90;;;;;;4250191;27;20497;-86
2022/05/17 07:55:16;;;;;;;10.43;2.67;;;20.20;99.90;;;;;;4219916;28;20048;-85
2022/05/17 07:57:17;;;;;;;9.30;3.20;;;20.30;99.90;;;;;;4253587;27;20046;-86
2022/05/17 07:59:19;;;;;;;15.07;3.25;;;20.40;99.70;;;;;;4250042;27;20514;-83
2022/05/17 08:01:20;;;;;;;15.18;3.47;;;20.50;99.40;;;;;;4215968;28;20093;-84
2022/05/17 08:03:21;;;;;;;12.23;2.60;;;20.60;99.20;;;;;;4233333;28;20063;-84
2022/05/17 08:05:22;;;;;;;9.93;2.97;;;20.70;99.00;;;;;;4251432;27;20043;-83
2022/05/17 08:07:23;;;;;;;7.63;2.72;;;20.80;98.80;;;;;;4250394;27;20035;-85
2022/05/17 08:09:24;;;;;;;11.68;3.20;;;20.90;98.40;;;;;;4249886;27;20430;-84
2022/05/17 08:11:25;;;;;;;10.05;2.97;;;20.30;98.20;;;;;;4232155;28;20047;-84
2022/05/17 08:13:26;;;;;;;14.20;3.17;;;21.10;98.10;;;;;;4250676;27;20086;-84
2022/05/17 08:15:28;;;;;;;10.77;4.00;;;21.20;98.10;;;;;;4251484;27;20043;-84
2022/05/17 08:17:29;;;;;;;13.20;3.30;;;21.30;97.80;;;;;;4251082;27;20043;-83
2022/05/17 08:19:30;;;;;;;12.20;3.05;;;21.50;97.70;;;;;;4249419;27;20050;-83
2022/05/17 08:21:31;;;;;;;8.95;2.90;;;21.60;97.50;;;;;;4231299;28;20434;-83
2022/05/17 08:23:31;;;;;;;11.05;3.20;;;21.80;97.00;;;;;;4249300;27;20074;-83
2022/05/17 08:27:54;;;;;;;13.73;3.60;;;22.00;96.40;;;;;;4249133;27;20047;-84
2022/05/17 08:29:55;;;;;;;15.73;3.05;;;22.10;96.40;;;;;;4249380;27;20483;-83
2022/05/17 08:34:14;;;;;;;12.00;3.38;;;22.10;96.00;;;;;;4249165;27;20086;-84
2022/05/17 08:36:15;;;;;;;9.48;2.95;;;22.20;95.90;;;;;;4230690;28;20054;-83
2022/05/17 08:38:19;;;;;;;10.73;2.97;;;;;;;;;;4249332;27;20103;-83
2022/05/17 08:40:21;;;;;;;14.30;4.07;;;;;;;;;;4230797;28;20048;-83
2022/05/17 08:42:30;;;;;;;12.60;3.40;;;;;;;;;;4249289;27;20043;-83
2022/05/17 08:44:34;;;;;;;13.00;3.33;;;;;;;;;;4248904;27;20086;-84
2022/05/17 08:46:38;;;;;;;11.00;2.85;;;;;;;;;;4231001;28;20557;-84
2022/05/17 08:49:01;;;;;;;7.55;2.88;;;;;;;;;;4249166;27;20058;-84
2022/05/17 08:51:02;;;;;;;9.75;2.80;;;;;;;;;;4248430;27;20046;-83
2022/05/17 08:53:03;;;;;;;11.63;3.35;;;;;;;;;;4248900;27;20046;-83
2022/05/17 08:55:16;;;;;;;8.45;3.40;;;;;;;;;;4248904;27;20054;-83
2022/05/17 08:57:18;;;;;;;8.45;3.05;;;;;;;;;;4249047;27;20061;-83
2022/05/17 08:59:22;;;;;;;8.00;3.38;;;;;;;;;;4249109;27;20078;-83
2022/05/17 09:01:25;;;;;;;8.55;2.90;;;;;;;;;;4251520;27;20422;-84
2022/05/17 09:03:44;;;;;;;9.18;2.60;;;;;;;;;;4248530;27;20046;-84
2022/05/17 09:06:05;;;;;;;11.30;3.70;;;;;;;;;;4250322;27;20122;-84
2022/05/17 09:08:12;;;;;;;10.90;3.00;;;;;;;;;;4249182;27;20127;-83
2022/05/17 09:10:13;;;;;;;12.60;2.70;;;;;;;;;;4248775;27;20039;-84
2022/05/17 09:12:26;;;;;;;12.52;3.10;;;;;;;;;;4248705;27;20042;-84
2022/05/17 09:14:30;;;;;;;8.90;2.72;;;;;;;;;;4229870;28;20043;-83
2022/05/17 09:16:38;;;;;;;7.32;2.95;;;;;;;;;;4230417;28;20050;-84
2022/05/17 09:18:41;;;;;;;8.07;2.67;;;;;;;;;;4248914;27;20112;-84
2022/05/17 09:20:42;;;;;;;7.88;2.88;;;;;;;;;;4246976;27;20051;-84
2022/05/17 09:22:43;;;;;;;8.50;3.25;;;;;;;;;;4248454;27;20031;-84
2022/05/17 09:24:47;;;;;;;7.68;2.47;;;;;;;;;;4248022;27;20061;-84
2022/05/17 09:26:52;;;;;;;10.93;3.42;;;;;;;;;;4248095;27;20050;-84
2022/05/17 09:28:58;;;;;;;6.10;2.33;;;;;;;;;;4248192;27;20081;-83
2022/05/17 09:31:10;;;;;;;8.50;1.90;;;;;;;;;;4248427;27;20539;-83
2022/05/17 09:33:14;;;;;;;9.70;2.97;;;;;;;;;;4248329;27;20066;-83
2022/05/17 09:35:17;;;;;;;5.97;2.10;;;;;;;;;;4247934;27;20047;-85
2022/05/17 09:37:20;;;;;;;10.38;2.17;;;;;;;;;;4248143;27;20043;-84
2022/05/17 09:39:22;;;;;;;9.32;2.30;;;;;;;;;;4247978;27;20047;-84
2022/05/17 09:41:28;;;;;;;9.35;2.20;;;;;;;;;;4247964;27;20047;-84
2022/05/17 09:43:38;;;;;;;7.93;2.72;;;;;;;;;;4248067;27;20055;-84
2022/05/17 09:45:58;;;;;;;9.10;2.25;;;;;;;;;;4247663;27;20126;-84
2022/05/17 09:48:00;;;;;;;5.07;1.90;;;;;;;;;;4248103;27;20134;-84
2022/05/17 09:52:32;;;;;;;7.90;2.03;;;;;;;;;;4248002;27;20487;-84
2022/05/17 09:54:34;;;;;;;9.10;2.72;;;;;;;;;;4248037;27;20042;-84
2022/05/17 09:56:36;;;;;;;9.73;2.22;;;;;;;;;;4247747;27;20083;-84
2022/05/17 09:58:38;;;;;;;4.97;1.70;;;;;;;;;;4229792;28;20074;-84
2022/05/17 10:00:42;;;;;;;9.57;2.30;;;;;;;;;;4247435;27;20172;-83
2022/05/17 10:02:49;;;;;;;9.88;1.85;;;;;;;;;;4247798;27;20115;-83
2022/05/17 10:04:50;;;;;;;12.45;2.20;;;;;;;;;;4248071;27;20043;-83
2022/05/17 10:06:55;;;;;;;12.23;1.92;;;;;;;;;;4247922;27;20092;-83
2022/05/17 10:09:00;;;;;;;7.20;2.03;;;;;;;;;;4247818;27;20100;-84
2022/05/17 10:11:06;;;;;;;10.15;2.63;;;;;;;;;;4248023;27;20495;-84
2022/05/17 10:13:25;;;;;;;8.43;2.00;;;;;;;;;;4247474;27;20043;-84
2022/05/17 10:15:26;;;;;;;;;;;;;;;;;;4248166;27;20102;-84
2022/05/17 10:17:31;;;;;;;8.05;1.90;;;;;;;;;;4247692;27;19968;-84
2022/05/17 10:19:49;;;;;;;7.63;1.80;;;;;;;;;;4247404;27;20043;-84
2022/05/17 10:21:52;;;;;;;8.30;2.60;;;;;;;;;;4247659;27;20499;-84
2022/05/17 10:24:03;;;;;;;7.88;2.13;;;;;;;;;;4247756;28;20498;-84
2022/05/17 10:26:09;;;;;;;8.85;2.50;;;;;;;;;;4247623;27;20047;-84
2022/05/17 10:28:15;;;;;;;6.45;2.38;;;;;;;;;;4247638;27;20047;-84
2022/05/17 10:30:18;;;;;;;6.45;2.38;;;;;;;;;;4247569;28;20047;-84
2022/05/17 10:32:40;;;;;;;7.30;2.10;;;;;;;;;;4247339;27;20043;-84
2022/05/17 10:34:47;;;;;;;12.20;2.65;;;;;;;;;;4247474;28;20118;-84
2022/05/17 10:36:51;;;;;;;6.68;2.20;;;;;;;;;;4247011;28;20051;-84
2022/05/17 10:39:12;;;;;;;6.63;1.55;;;;;;;;;;4229538;28;20503;-84
2022/05/17 10:41:13;;;;;;;8.27;2.45;;;;;;;;;;4247329;27;20081;-84
2022/05/17 10:43:21;;;;;;;5.75;1.80;;;;;;;;;;4247693;28;20046;-84
2022/05/17 10:45:32;;;;;;;9.10;2.22;;;;;;;;;;4229410;28;20044;-84
2022/05/17 10:47:46;;;;;;;7.57;2.10;;;;;;;;;;4247626;28;20043;-84
2022/05/17 10:49:50;;;;;;;7.43;1.45;;;;;;;;;;4247546;28;20440;-84
2022/05/17 10:51:56;;;;;;;11.88;2.65;;;;;;;;;;4247537;28;20072;-84
2022/05/17 10:54:05;;;;;;;8.57;1.90;;;;;;;;;;4246837;28;20047;-84
2022/05/17 10:56:17;;;;;;;10.35;1.85;;;;;;;;;;4230317;28;20104;-85
2022/05/17 10:58:37;;;;;;;7.63;2.22;;;;;;;;;;4247531;28;20047;-83
2022/05/17 11:00:41;;;;;;;6.28;1.95;;;;;;;;;;4247661;28;20100;-84
2022/05/17 11:02:51;;;;;;;6.75;1.88;;;;;;;;;;4247022;28;20071;-83
2022/05/17 11:04:58;;;;;;;9.60;1.63;;;;;;;;;;4228826;28;20047;-84